Time;durP1;ratioP1;P1;durP2;ratioP2;P2;SDS_P1;SDS_P2;PMS_P1;PMS_P2;Temp;Humidity;BMP_temperature;BMP_pressure;BME280_temperature;BME280_humidity;BME280_pressure;Samples;Min_cycle;Max_cycle;Signal;HPM_P1;HPM_P2
2023/01/10 00:00:19;;;;;;;27.10;9.70;;;;;;;;;;5054239;28;20464;-82
2023/01/10 00:02:46;;;;;;;23.43;9.77;;;;;;;;;;5055898;28;20476;-82
2023/01/10 00:05:13;;;;;;;22.53;9.17;;;;;;;;;;5051793;28;20512;-82
2023/01/10 00:07:40;;;;;;;19.47;9.43;;;;;;;;;;5059201;28;20473;-82
2023/01/10 00:10:06;;;;;;;31.97;11.30;;;;;;;;;;5054692;28;20879;-82
2023/01/10 00:15:17;;;;;;;16.47;9.43;;;;;;;;;;5057140;28;20416;-83
2023/01/10 00:17:43;;;;;;;23.73;10.07;;;;;;;;;;5057409;28;20474;-82
2023/01/10 00:20:12;;;;;;;22.97;9.50;;;;;;;;;;5055619;28;20448;-83
2023/01/10 00:22:40;;;;;;;18.23;10.47;;;;;;;;;;5061405;28;20464;-82
2023/01/10 00:25:06;;;;;;;23.37;9.40;;;;;;;;;;5056440;28;20447;-82
2023/01/10 00:27:33;;;;;;;20.93;9.30;;;;;;;;;;5059450;28;20484;-82
2023/01/10 00:30:00;;;;;;;19.90;9.53;;;;;;;;;;5054157;28;20457;-82
2023/01/10 00:32:28;;;;;;;17.53;8.80;;;;;;;;;;5060467;28;20500;-82
2023/01/10 00:34:54;;;;;;;24.00;9.70;;;;;;;;;;5057698;28;20504;-82
2023/01/10 00:37:20;;;;;;;17.07;8.80;;;;;;;;;;5058521;28;20941;-83
2023/01/10 00:39:48;;;;;;;17.63;8.60;;;;;;;;;;5055427;28;20495;-82
2023/01/10 00:44:58;;;;;;;13.00;7.67;;;;;;;;;;5059089;28;20456;-82
2023/01/10 00:47:25;;;;;;;18.73;7.80;;;;;;;;;;5056558;28;20470;-82
2023/01/10 00:49:51;;;;;;;13.00;7.00;;;;;;;;;;5057744;28;20443;-82
2023/01/10 00:52:18;;;;;;;19.77;6.87;;;;;;;;;;5053555;28;20475;-83
2023/01/10 00:54:44;;;;;;;13.97;6.30;;;;;;;;;;5058132;28;20459;-82
2023/01/10 00:57:12;;;;;;;14.60;6.33;;;;;;;;;;5056376;28;20494;-82
2023/01/10 00:59:38;;;;;;;12.07;6.50;;;;;;;;;;5061162;28;20946;-82
2023/01/10 01:02:05;;;;;;;13.80;5.77;;;;;;;;;;5061741;28;20853;-82
2023/01/10 01:04:32;;;;;;;18.67;6.90;;;;;;;;;;5058004;28;20444;-82
2023/01/10 01:06:59;;;;;;;15.30;5.30;;;;;;;;;;5061603;28;20538;-82
2023/01/10 01:09:25;;;;;;;9.97;5.30;;;;;;;;;;5060426;28;20511;-82
2023/01/10 01:11:52;;;;;;;8.90;4.80;;;;;;;;;;5057195;28;20983;-82
2023/01/10 01:14:19;;;;;;;12.43;4.50;;;;;;;;;;5054338;28;20518;-82
2023/01/10 01:16:46;;;;;;;12.07;3.87;;;;;;;;;;5051756;28;20543;-82
2023/01/10 01:19:12;;;;;;;14.50;7.43;;;;;;;;;;5059062;28;20453;-82
2023/01/10 01:21:39;;;;;;;14.07;4.70;;;;;;;;;;5057749;28;20986;-82
2023/01/10 01:24:05;;;;;;;16.93;5.10;;;;;;;;;;5058425;28;20463;-82
2023/01/10 01:26:34;;;;;;;15.63;6.10;;;;;;;;;;5053340;28;20480;-82
2023/01/10 01:29:00;;;;;;;15.77;5.30;;;;;;;;;;5059899;28;20499;-83
2023/01/10 01:31:28;;;;;;;11.83;5.57;;;;;;;;;;5060240;28;20470;-82
2023/01/10 01:33:54;;;;;;;10.03;5.40;;;;;;;;;;5053017;28;20459;-82
2023/01/10 01:36:20;;;;;;;18.67;5.43;;;;;;;;;;5059044;28;20460;-82
2023/01/10 01:38:47;;;;;;;11.87;5.97;;;;;;;;;;5050946;28;20477;-82
2023/01/10 01:44:01;;;;;;;16.17;4.90;;;;;;;;;;5057409;28;20506;-82
2023/01/10 01:46:30;;;;;;;9.77;4.30;;;;;;;;;;5056156;28;20479;-82
2023/01/10 01:48:56;;;;;;;10.67;4.20;;;;;;;;;;5054892;28;20499;-82
2023/01/10 01:51:24;;;;;;;8.50;4.03;;;;;;;;;;5046113;28;20480;-82
2023/01/10 01:53:52;;;;;;;8.83;4.80;;;;;;;;;;5056482;28;20579;-82
2023/01/10 01:56:21;;;;;;;14.03;5.70;;;;;;;;;;5053866;28;20465;-82
2023/01/10 01:58:49;;;;;;;16.67;4.90;;;;;;;;;;5055704;28;20478;-82
2023/01/10 02:01:16;;;;;;;6.50;5.20;;;;;;;;;;5052231;28;20464;-82
2023/01/10 02:03:46;;;;;;;4.73;3.83;;;;;;;;;;5059561;28;20534;-82
2023/01/10 02:06:13;;;;;;;7.03;4.70;;;;;;;;;;5056799;28;20470;-82
2023/01/10 02:08:43;;;;;;;14.53;6.97;;;;;;;;;;5054901;28;20496;-82
2023/01/10 02:11:10;;;;;;;58.33;19.33;;;;;;;;;;5050699;28;20461;-82
2023/01/10 02:13:38;;;;;;;11.63;6.50;;;;;;;;;;5052149;28;20458;-82
2023/01/10 02:16:05;;;;;;;12.07;4.87;;;;;;;;;;5057514;28;20487;-83
2023/01/10 02:18:31;;;;;;;6.80;4.87;;;;;;;;;;5054386;28;20464;-82
2023/01/10 02:21:07;;;;;;;25.50;4.90;;;;;;;;;;5055445;28;20452;-82
2023/01/10 02:23:42;;;;;;;8.10;4.20;;;;;;;;;;5058135;28;20447;-82
2023/01/10 02:26:22;;;;;;;26.33;5.17;;;;;;;;;;5056941;28;20795;-82
2023/01/10 02:29:16;;;;;;;7.57;3.30;;;;;;;;;;5053480;28;20996;-82
2023/01/10 02:32:06;;;;;;;7.53;3.40;;;;;;;;;;5055953;28;20459;-82
2023/01/10 02:34:39;;;;;;;9.90;4.00;;;;;;;;;;5048180;28;20460;-82
2023/01/10 02:37:08;;;;;;;11.30;4.00;;;;;;;;;;5055841;28;20480;-82
2023/01/10 02:39:36;;;;;;;9.83;3.63;;;;;;;;;;5054403;28;20987;-82
2023/01/10 02:42:06;;;;;;;14.17;3.67;;;;;;;;;;5051412;28;20467;-82
2023/01/10 02:44:36;;;;;;;11.83;3.50;;;;;;;;;;5051958;28;20442;-82
2023/01/10 02:47:03;;;;;;;7.40;3.83;;;;;;;;;;5050406;28;20460;-82
2023/01/10 02:49:29;;;;;;;12.47;2.83;;;;;;;;;;5056246;28;20489;-82
2023/01/10 02:51:57;;;;;;;11.27;3.57;;;;;;;;;;5056310;28;20473;-82
2023/01/10 02:54:25;;;;;;;10.60;3.20;;;;;;;;;;5058305;28;20456;-82
2023/01/10 02:57:18;;;;;;;13.87;5.00;;;;;;;;;;5055075;28;21004;-82
2023/01/10 03:00:00;;;;;;;15.40;3.83;;;;;;;;;;5020724;28;20954;-82
2023/01/10 03:02:48;;;;;;;10.37;3.77;;;;;;;;;;5037582;28;20463;-82
2023/01/10 03:05:19;;;;;;;11.63;5.37;;;;;;;;;;5054792;28;20451;-82
2023/01/10 03:07:52;;;;;;;11.23;4.10;;;;;;;;;;5051169;28;20483;-82
2023/01/10 03:10:21;;;;;;;11.10;4.80;;;;;;;;;;5055316;28;20853;-82
2023/01/10 03:12:55;;;;;;;9.93;3.93;;;;;;;;;;5055433;28;20850;-82
2023/01/10 03:15:24;;;;;;;57.47;6.07;;;;;;;;;;5054818;28;20445;-82
2023/01/10 03:17:53;;;;;;;11.60;3.20;;;;;;;;;;5056211;28;20467;-82
2023/01/10 03:20:20;;;;;;;7.60;3.57;;;;;;;;;;5051347;28;20441;-82
2023/01/10 03:22:51;;;;;;;14.03;3.80;;;;;;;;;;5051480;28;20468;-82
2023/01/10 03:25:19;;;;;;;11.33;4.60;;;;;;;;;;5048606;28;20429;-82
2023/01/10 03:27:50;;;;;;;9.03;3.83;;;;;;;;;;5054924;28;20482;-82
2023/01/10 03:30:20;;;;;;;17.13;4.87;;;;;;;;;;5053628;28;20489;-82
2023/01/10 03:32:46;;;;;;;13.03;4.60;;;;;;;;;;5057837;28;20469;-82
2023/01/10 03:35:14;;;;;;;16.93;4.20;;;;;;;;;;5048987;28;20438;-83
2023/01/10 03:37:44;;;;;;;12.63;3.00;;;;;;;;;;5054948;28;20571;-82
2023/01/10 03:40:14;;;;;;;10.07;3.23;;;;;;;;;;5057054;28;20455;-82
2023/01/10 03:45:33;;;;;;;7.00;3.90;;;;;;;;;;5056837;28;20455;-82
2023/01/10 03:48:01;;;;;;;18.10;4.87;;;;;;;;;;5057656;28;20476;-82
2023/01/10 03:50:29;;;;;;;13.47;4.10;;;;;;;;;;5054236;28;20483;-82
2023/01/10 03:52:55;;;;;;;16.27;4.00;;;;;;;;;;5055063;28;20469;-82
2023/01/10 03:55:24;;;;;;;10.17;4.67;;;;;;;;;;5054959;28;20448;-82
2023/01/10 03:57:50;;;;;;;7.87;4.33;;;;;;;;;;5064456;28;20478;-82
2023/01/10 04:00:18;;;;;;;9.27;3.50;;;;;;;;;;5060487;28;20463;-82
2023/01/10 04:02:44;;;;;;;11.17;3.77;;;;;;;;;;5058570;28;20479;-82
2023/01/10 04:05:11;;;;;;;14.93;4.00;;;;;;;;;;5056551;28;20451;-82
2023/01/10 04:07:42;;;;;;;8.50;4.23;;;;;;;;;;5060804;28;20476;-82
2023/01/10 04:10:09;;;;;;;17.03;4.00;;;;;;;;;;5064280;28;20475;-82
2023/01/10 04:12:37;;;;;;;14.50;5.00;;;;;;;;;;5059791;28;20468;-82
2023/01/10 04:15:04;;;;;;;11.50;4.90;;;;;;;;;;5059312;28;20820;-82
2023/01/10 04:17:30;;;;;;;17.63;5.70;;;;;;;;;;5048315;28;20472;-82
2023/01/10 04:19:56;;;;;;;12.07;5.37;;;;;;;;;;5052570;28;20463;-82
2023/01/10 04:22:24;;;;;;;16.80;4.70;;;;;;;;;;5057550;28;20475;-82
2023/01/10 04:24:51;;;;;;;21.73;4.97;;;;;;;;;;5059119;28;20452;-82
2023/01/10 04:27:17;;;;;;;11.23;4.20;;;;;;;;;;5056154;28;21008;-82
2023/01/10 04:29:45;;;;;;;16.03;4.37;;;;;;;;;;5057584;28;21030;-82
2023/01/10 04:32:11;;;;;;;19.27;4.73;;;;;;;;;;5056042;28;20466;-82
2023/01/10 04:34:38;;;;;;;16.53;5.10;;;;;;;;;;5056831;28;20459;-82
2023/01/10 04:37:04;;;;;;;13.40;5.03;;;;;;;;;;5064079;28;20487;-82
2023/01/10 04:39:31;;;;;;;21.20;5.17;;;;;;;;;;5054601;28;20459;-82
2023/01/10 04:41:59;;;;;;;24.67;6.10;;;;;;;;;;5055429;28;20851;-82
2023/01/10 04:44:25;;;;;;;14.20;5.33;;;;;;;;;;5053832;28;20441;-82
2023/01/10 04:46:53;;;;;;;14.10;4.90;;;;;;;;;;5057650;28;20469;-82
2023/01/10 04:49:19;;;;;;;9.90;4.23;;;;;;;;;;5059969;28;20487;-83
2023/01/10 04:51:45;;;;;;;21.50;5.90;;;;;;;;;;5056794;28;20863;-82
2023/01/10 04:54:12;;;;;;;10.97;4.30;;;;;;;;;;5055050;28;20455;-82
2023/01/10 04:56:38;;;;;;;24.57;5.57;;;;;;;;;;5060340;28;20483;-82
2023/01/10 04:59:05;;;;;;;14.93;4.23;;;;;;;;;;5053262;28;20479;-82
2023/01/10 05:01:31;;;;;;;17.80;5.37;;;;;;;;;;5059283;28;20467;-82
2023/01/10 05:03:59;;;;;;;18.83;5.23;;;;;;;;;;5059328;28;20540;-82
2023/01/10 05:06:25;;;;;;;16.53;5.20;;;;;;;;;;5059066;28;20486;-82
2023/01/10 05:08:52;;;;;;;19.33;5.63;;;;;;;;;;5058714;28;20496;-82
2023/01/10 05:11:18;;;;;;;15.33;5.70;;;;;;;;;;5056370;28;20468;-82
2023/01/10 05:13:44;;;;;;;19.17;4.53;;;;;;;;;;5060170;28;20461;-82
2023/01/10 05:16:10;;;;;;;13.07;3.80;;;;;;;;;;5054022;28;20464;-82
2023/01/10 05:18:37;;;;;;;5.60;3.50;;;;;;;;;;5060703;28;20480;-82
2023/01/10 05:21:05;;;;;;;18.67;5.37;;;;;;;;;;5055603;28;20456;-82
2023/01/10 05:23:31;;;;;;;23.10;6.63;;;;;;;;;;5053227;28;20444;-82
2023/01/10 05:25:58;;;;;;;12.73;4.70;;;;;;;;;;5054048;28;20980;-82
2023/01/10 05:28:24;;;;;;;18.00;5.80;;;;;;;;;;5059412;28;20468;-82
2023/01/10 05:30:50;;;;;;;14.70;4.40;;;;;;;;;;5055698;28;20548;-83
2023/01/10 05:33:17;;;;;;;13.80;4.50;;;;;;;;;;5059600;28;20464;-82
2023/01/10 05:35:43;;;;;;;11.10;5.80;;;;;;;;;;5052504;28;20460;-82
2023/01/10 05:38:13;;;;;;;24.70;4.93;;;;;;;;;;5061886;28;20527;-82
2023/01/10 05:40:39;;;;;;;16.73;5.40;;;;;;;;;;5056388;28;20464;-82
2023/01/10 05:43:05;;;;;;;14.27;5.90;;;;;;;;;;5056167;28;20479;-82
2023/01/10 05:45:32;;;;;;;21.50;4.80;;;;;;;;;;5058767;28;20453;-82
2023/01/10 05:47:58;;;;;;;20.27;4.80;;;;;;;;;;5059151;28;20494;-82
2023/01/10 05:50:24;;;;;;;19.30;6.37;;;;;;;;;;5053058;28;20480;-82
2023/01/10 05:52:51;;;;;;;15.77;4.53;;;;;;;;;;5060040;28;20479;-82
2023/01/10 05:55:19;;;;;;;17.93;5.40;;;;;;;;;;5056951;28;20457;-82
2023/01/10 05:57:45;;;;;;;10.20;4.43;;;;;;;;;;5056704;28;20993;-82
2023/01/10 06:00:12;;;;;;;23.33;5.67;;;;;;;;;;5055147;28;20447;-82
2023/01/10 06:02:38;;;;;;;10.23;5.17;;;;;;;;;;5055969;28;20469;-82
2023/01/10 06:05:06;;;;;;;14.67;4.40;;;;;;;;;;5056613;28;20460;-82
2023/01/10 06:07:33;;;;;;;16.43;5.83;;;;;;;;;;5055011;28;20472;-82
2023/01/10 06:09:59;;;;;;;19.00;5.10;;;;;;;;;;5055807;28;20476;-82
2023/01/10 06:12:27;;;;;;;16.80;5.30;;;;;;;;;;5056717;28;21146;-82
2023/01/10 06:14:53;;;;;;;13.87;5.37;;;;;;;;;;5056787;28;20452;-82
2023/01/10 06:17:19;;;;;;;11.07;4.80;;;;;;;;;;5055155;28;20469;-82
2023/01/10 06:19:45;;;;;;;18.30;5.40;;;;;;;;;;5052837;28;20819;-82
2023/01/10 06:22:12;;;;;;;27.27;6.87;;;;;;;;;;5054789;28;20468;-81
2023/01/10 06:24:38;;;;;;;15.93;5.90;;;;;;;;;;5056722;28;20451;-81
2023/01/10 06:27:05;;;;;;;17.40;4.80;;;;;;;;;;5057620;28;20475;-82
2023/01/10 06:29:33;;;;;;;17.07;5.30;;;;;;;;;;5053454;28;21145;-81
2023/01/10 06:31:59;;;;;;;11.57;4.80;;;;;;;;;;5053799;28;20483;-81
2023/01/10 06:34:25;;;;;;;11.60;5.97;;;;;;;;;;5053709;28;20447;-82
2023/01/10 06:36:51;;;;;;;21.80;4.87;;;;;;;;;;5055243;28;20845;-82
2023/01/10 06:39:18;;;;;;;12.63;5.20;;;;;;;;;;5056864;28;20479;-82
2023/01/10 06:41:44;;;;;;;16.30;7.43;;;;;;;;;;5047742;28;20484;-82
2023/01/10 06:44:10;;;;;;;14.97;5.20;;;;;;;;;;5052243;28;20989;-81
2023/01/10 06:46:38;;;;;;;22.33;5.60;;;;;;;;;;5057509;28;20460;-82
2023/01/10 06:49:06;;;;;;;8.70;4.93;;;;;;;;;;5059273;28;21050;-81
2023/01/10 06:51:32;;;;;;;16.73;4.63;;;;;;;;;;5058437;28;20494;-82
2023/01/10 06:53:59;;;;;;;10.43;4.30;;;;;;;;;;5056510;28;20450;-82
2023/01/10 06:56:25;;;;;;;19.20;6.00;;;;;;;;;;5055866;28;20475;-82
2023/01/10 06:58:51;;;;;;;16.33;5.37;;;;;;;;;;5054447;28;20479;-82
2023/01/10 07:01:19;;;;;;;22.50;6.33;;;;;;;;;;5054592;28;21016;-81
2023/01/10 07:03:47;;;;;;;16.17;5.83;;;;;;;;;;5055111;28;20464;-82
2023/01/10 07:06:13;;;;;;;17.67;5.97;;;;;;;;;;5050787;28;20464;-82
2023/01/10 07:08:40;;;;;;;14.73;5.77;;;;;;;;;;5052922;28;20474;-82
2023/01/10 07:11:06;;;;;;;15.00;6.97;;;;;;;;;;5056013;28;20487;-82
2023/01/10 07:13:33;;;;;;;18.33;5.40;;;;;;;;;;5056753;28;20444;-82
2023/01/10 07:16:03;;;;;;;11.90;4.90;;;;;;;;;;5058731;28;20463;-82
2023/01/10 07:18:29;;;;;;;12.53;5.03;;;;;;;;;;5059243;28;21000;-82
2023/01/10 07:20:57;;;;;;;22.13;5.87;;;;;;;;;;5054726;28;20460;-82
2023/01/10 07:23:23;;;;;;;22.33;8.27;;;;;;;;;;5056826;28;20448;-82
2023/01/10 07:25:50;;;;;;;16.93;6.43;;;;;;;;;;5050824;28;20818;-82
2023/01/10 07:28:16;;;;;;;11.83;5.30;;;;;;;;;;5055083;28;20471;-83
2023/01/10 07:30:42;;;;;;;20.70;6.17;;;;;;;;;;5056721;28;20487;-82
2023/01/10 07:33:09;;;;;;;19.47;6.13;;;;;;;;;;5054581;28;20476;-82
2023/01/10 07:35:35;;;;;;;13.53;5.80;;;;;;;;;;5054479;28;20965;-82
2023/01/10 07:38:03;;;;;;;22.90;5.90;;;;;;;;;;5052933;28;20550;-82
2023/01/10 07:40:29;;;;;;;11.67;6.63;;;;;;;;;;5055893;28;20436;-82
2023/01/10 07:42:56;;;;;;;14.90;6.37;;;;;;;;;;5051441;28;20455;-82
2023/01/10 07:45:23;;;;;;;15.80;6.90;;;;;;;;;;5057675;28;20470;-82
2023/01/10 07:47:49;;;;;;;16.20;6.90;;;;;;;;;;5057382;28;20476;-82
2023/01/10 07:50:16;;;;;;;20.37;6.70;;;;;;;;;;5062492;28;20490;-82
2023/01/10 07:52:42;;;;;;;19.80;6.63;;;;;;;;;;5056039;28;20468;-82
2023/01/10 07:55:10;;;;;;;15.33;7.73;;;;;;;;;;5060078;28;20466;-82
2023/01/10 07:57:37;;;;;;;15.10;7.47;;;;;;;;;;5055593;28;20475;-82
2023/01/10 08:00:03;;;;;;;20.60;7.53;;;;;;;;;;5055897;28;20447;-82
2023/01/10 08:02:30;;;;;;;19.63;8.20;;;;;;;;;;5050577;28;20508;-82
2023/01/10 08:04:56;;;;;;;16.23;7.10;;;;;;;;;;5054977;28;20466;-81
2023/01/10 08:07:22;;;;;;;25.63;8.50;;;;;;;;;;5050764;28;20469;-82
2023/01/10 08:09:49;;;;;;;17.80;7.53;;;;;;;;;;5055279;28;20483;-82
2023/01/10 08:12:16;;;;;;;18.53;7.30;;;;;;;;;;5057153;28;20985;-82
2023/01/10 08:14:43;;;;;;;17.03;7.47;;;;;;;;;;5056204;28;20448;-83
2023/01/10 08:17:09;;;;;;;18.97;7.00;;;;;;;;;;5056717;28;20463;-82
2023/01/10 08:19:36;;;;;;;25.27;8.40;;;;;;;;;;5052048;28;20459;-82
2023/01/10 08:22:03;;;;;;;17.67;6.60;;;;;;;;;;5050466;28;20471;-82
2023/01/10 08:24:29;;;;;;;23.50;7.80;;;;;;;;;;5051806;28;20451;-82
2023/01/10 08:26:57;;;;;;;19.00;9.10;;;;;;;;;;5056825;28;20481;-82
2023/01/10 08:29:25;;;;;;;16.87;7.10;;;;;;;;;;5062168;28;20461;-82
2023/01/10 08:31:51;;;;;;;24.07;8.13;;;;;;;;;;5053815;28;20479;-82
2023/01/10 08:34:18;;;;;;;15.60;7.80;;;;;;;;;;5060199;28;20459;-82
2023/01/10 08:36:45;;;;;;;22.73;7.20;;;;;;;;;;5056209;28;20475;-82
2023/01/10 08:39:11;;;;;;;19.60;7.60;;;;;;;;;;5057298;28;20464;-82
2023/01/10 08:41:38;;;;;;;25.90;8.13;;;;;;;;;;5051038;28;20488;-82
2023/01/10 08:44:04;;;;;;;18.30;7.67;;;;;;;;;;5056467;28;20483;-82
2023/01/10 08:46:32;;;;;;;22.57;7.33;;;;;;;;;;5052854;28;20830;-82
2023/01/10 08:48:58;;;;;;;26.17;7.80;;;;;;;;;;5055841;28;20473;-82
2023/01/10 08:51:26;;;;;;;11.90;7.67;;;;;;;;;;5054637;28;20563;-82
2023/01/10 08:53:53;;;;;;;17.63;7.50;;;;;;;;;;5057242;28;20468;-82
2023/01/10 08:56:19;;;;;;;22.47;6.73;;;;;;;;;;5058365;28;20459;-82
2023/01/10 08:58:45;;;;;;;12.43;7.90;;;;;;;;;;5058289;28;20539;-82
2023/01/10 09:01:13;;;;;;;31.77;8.50;;;;;;;;;;5052273;28;20467;-82
2023/01/10 09:03:41;;;;;;;17.83;9.60;;;;;;;;;;5057429;28;20957;-82
2023/01/10 09:06:08;;;;;;;22.23;9.50;;;;;;;;;;5047607;28;20489;-82
2023/01/10 09:08:34;;;;;;;28.27;8.03;;;;;;;;;;5055756;28;20824;-82
2023/01/10 09:11:01;;;;;;;20.73;9.40;;;;;;;;;;5052931;28;20484;-82
2023/01/10 09:13:27;;;;;;;14.40;8.10;;;;;;;;;;5059659;28;20440;-82
2023/01/10 09:15:55;;;;;;;23.87;8.50;;;;;;;;;;5057232;28;20946;-82
2023/01/10 09:18:22;;;;;;;26.83;10.80;;;;;;;;;;5056162;28;20491;-82
2023/01/10 09:20:50;;;;;;;34.53;9.30;;;;;;;;;;5054836;28;20437;-82
2023/01/10 09:23:18;;;;;;;21.30;8.63;;;;;;;;;;5054092;28;20455;-81
2023/01/10 09:25:45;;;;;;;18.97;8.77;;;;;;;;;;5053635;28;20462;-82
2023/01/10 09:28:12;;;;;;;21.90;8.67;;;;;;;;;;5057393;28;20472;-82
2023/01/10 09:30:38;;;;;;;20.33;9.10;;;;;;;;;;5060093;28;21013;-82
2023/01/10 09:33:05;;;;;;;27.63;9.77;;;;;;;;;;5057030;28;20483;-82
2023/01/10 09:35:31;;;;;;;16.93;9.70;;;;;;;;;;5055763;28;20456;-82
2023/01/10 09:38:00;;;;;;;22.90;8.33;;;;;;;;;;5059223;28;20494;-82
2023/01/10 09:40:31;;;;;;;25.00;8.83;;;;;;;;;;5052605;28;20935;-82
2023/01/10 09:43:03;;;;;;;18.20;8.47;;;;;;;;;;5054913;28;20481;-82
2023/01/10 09:45:37;;;;;;;20.10;8.50;;;;;;;;;;5059860;28;20437;-83
2023/01/10 09:48:06;;;;;;;17.23;8.27;;;;;;;;;;5055680;28;20491;-82
2023/01/10 09:50:37;;;;;;;16.17;8.23;;;;;;;;;;5055879;28;20981;-82
2023/01/10 09:53:09;;;;;;;22.70;8.73;;;;;;;;;;5053159;28;20501;-82
2023/01/10 09:55:36;;;;;;;26.93;10.30;;;;;;;;;;5059852;28;20981;-82
2023/01/10 09:58:05;;;;;;;19.47;10.30;;;;;;;;;;5056047;28;20479;-82
2023/01/10 10:00:36;;;;;;;17.77;9.90;;;;;;;;;;5058862;28;20432;-82
2023/01/10 10:03:05;;;;;;;15.50;8.60;;;;;;;;;;5053334;28;20481;-82
2023/01/10 10:05:32;;;;;;;26.57;10.70;;;;;;;;;;5056545;28;20452;-82
2023/01/10 10:08:01;;;;;;;22.97;9.43;;;;;;;;;;5053594;28;21001;-82
2023/01/10 10:10:34;;;;;;;19.13;9.77;;;;;;;;;;5052848;28;20487;-82
2023/01/10 10:13:08;;;;;;;18.80;10.00;;;;;;;;;;5051844;28;20945;-82
2023/01/10 10:15:38;;;;;;;22.47;9.70;;;;;;;;;;5054897;28;20951;-82
2023/01/10 10:18:10;;;;;;;20.23;9.83;;;;;;;;;;5054061;28;20491;-82
2023/01/10 10:20:41;;;;;;;18.90;9.60;;;;;;;;;;5051669;28;20522;-82
2023/01/10 10:23:19;;;;;;;23.63;11.20;;;;;;;;;;5056156;28;20465;-82
2023/01/10 10:25:55;;;;;;;21.07;9.97;;;;;;;;;;5055359;28;20453;-82
2023/01/10 10:28:32;;;;;;;24.27;11.50;;;;;;;;;;5059342;28;20475;-82
2023/01/10 10:31:02;;;;;;;23.37;10.93;;;;;;;;;;5054502;28;20475;-82
2023/01/10 10:33:34;;;;;;;30.47;11.70;;;;;;;;;;5053937;28;20450;-82
2023/01/10 10:36:03;;;;;;;33.93;11.30;;;;;;;;;;5052755;28;20447;-82
2023/01/10 10:38:31;;;;;;;23.97;10.90;;;;;;;;;;5049663;28;20475;-82
2023/01/10 10:41:00;;;;;;;20.57;10.47;;;;;;;;;;5050523;28;20435;-81
2023/01/10 10:43:30;;;;;;;31.47;10.47;;;;;;;;;;5055987;28;20439;-82
2023/01/10 10:45:58;;;;;;;23.60;11.97;;;;;;;;;;5054687;28;20484;-81
2023/01/10 10:48:25;;;;;;;29.63;12.60;;;;;;;;;;5060449;28;20479;-82
2023/01/10 10:50:55;;;;;;;21.40;11.63;;;;;;;;;;5056038;28;20494;-82
2023/01/10 10:53:21;;;;;;;27.23;10.87;;;;;;;;;;5054609;28;20445;-82
2023/01/10 10:55:48;;;;;;;35.40;12.37;;;;;;;;;;5053948;28;20452;-82
2023/01/10 10:58:16;;;;;;;21.53;11.53;;;;;;;;;;5048175;28;20823;-83
2023/01/10 11:00:42;;;;;;;21.47;12.73;;;;;;;;;;5054164;28;20447;-82
2023/01/10 11:03:16;;;;;;;26.40;11.60;;;;;;;;;;5059162;28;20464;-82
2023/01/10 11:05:44;;;;;;;28.90;12.80;;;;;;;;;;5054213;28;20463;-82
2023/01/10 11:08:12;;;;;;;27.70;11.00;;;;;;;;;;5053138;28;20993;-82
2023/01/10 11:10:39;;;;;;;30.80;12.53;;;;;;;;;;5051970;28;20484;-82
2023/01/10 11:13:12;;;;;;;22.20;12.60;;;;;;;;;;5060158;28;20464;-82
2023/01/10 11:15:42;;;;;;;29.60;14.60;;;;;;;;;;5056040;28;20440;-81
2023/01/10 11:18:11;;;;;;;35.47;13.73;;;;;;;;;;5052017;28;20500;-82
2023/01/10 11:20:37;;;;;;;26.17;13.07;;;;;;;;;;5051387;28;20452;-82
2023/01/10 11:23:04;;;;;;;27.47;12.00;;;;;;;;;;5056094;28;20993;-82
2023/01/10 11:25:30;;;;;;;31.50;13.63;;;;;;;;;;5051364;28;20437;-82
2023/01/10 11:27:59;;;;;;;34.40;12.60;;;;;;;;;;5047125;28;20489;-82
2023/01/10 11:30:27;;;;;;;22.47;12.33;;;;;;;;;;5052954;28;20975;-82
2023/01/10 11:32:56;;;;;;;30.70;14.10;;;;;;;;;;5052985;28;20468;-82
2023/01/10 11:35:25;;;;;;;26.53;12.83;;;;;;;;;;5054048;28;20448;-82
2023/01/10 11:38:01;;;;;;;30.87;11.87;;;;;;;;;;5050211;28;20480;-82
2023/01/10 11:40:28;;;;;;;23.77;10.77;;;;;;;;;;5057906;28;20836;-82
2023/01/10 11:42:55;;;;;;;28.43;10.70;;;;;;;;;;5050006;28;20484;-82
2023/01/10 11:45:23;;;;;;;20.30;9.33;;;;;;;;;;5058470;28;20490;-82
2023/01/10 11:47:53;;;;;;;21.37;10.60;;;;;;;;;;5057426;28;20479;-82
2023/01/10 11:50:22;;;;;;;26.50;10.33;;;;;;;;;;5053272;28;20455;-82
2023/01/10 11:52:49;;;;;;;24.00;10.30;;;;;;;;;;5049793;28;20477;-82
2023/01/10 11:55:18;;;;;;;23.40;9.20;;;;;;;;;;5051974;28;20482;-82
2023/01/10 11:57:45;;;;;;;25.10;9.30;;;;;;;;;;5051609;28;20550;-82
2023/01/10 12:00:12;;;;;;;19.37;8.73;;;;;;;;;;5055637;28;20444;-82
2023/01/10 12:02:40;;;;;;;18.87;8.57;;;;;;;;;;5052621;28;20476;-82
2023/01/10 12:05:08;;;;;;;21.10;9.97;;;;;;;;;;5057195;28;20453;-82
2023/01/10 12:07:50;;;;;;;10.80;8.43;;;;;;;;;;5058612;28;20503;-82
2023/01/10 12:10:20;;;;;;;22.57;9.10;;;;;;;;;;5057793;28;20821;-82
2023/01/10 12:12:52;;;;;;;23.20;9.00;;;;;;;;;;5057401;28;20511;-82
2023/01/10 12:15:22;;;;;;;21.40;8.70;;;;;;;;;;5051897;28;20444;-82
2023/01/10 12:17:48;;;;;;;21.87;9.70;;;;;;;;;;5061605;28;20482;-82
2023/01/10 12:20:15;;;;;;;31.73;9.83;;;;;;;;;;5051888;28;20449;-82
2023/01/10 12:22:42;;;;;;;32.03;9.97;;;;;;;;;;5056192;28;20464;-82
2023/01/10 12:25:15;;;;;;;24.17;10.17;;;;;;;;;;5055605;28;20458;-82
2023/01/10 12:27:43;;;;;;;18.83;8.20;;;;;;;;;;5058782;28;20505;-82
2023/01/10 12:30:12;;;;;;;22.83;8.60;;;;;;;;;;5060263;28;20466;-82
2023/01/10 12:32:42;;;;;;;14.63;9.00;;;;;;;;;;5062796;28;20475;-82
2023/01/10 12:35:13;;;;;;;21.97;9.40;;;;;;;;;;5060683;28;20456;-82
2023/01/10 12:37:42;;;;;;;19.27;8.57;;;;;;;;;;5057113;28;20477;-82
2023/01/10 12:40:11;;;;;;;14.27;8.67;;;;;;;;;;5059646;28;20456;-82
2023/01/10 12:45:46;;;;;;;25.87;9.57;;;;;;;;;;5014922;28;20960;-82
2023/01/10 12:48:15;;;;;;;21.03;11.07;;;;;;;;;;5069738;28;20463;-82
2023/01/10 12:50:43;;;;;;;16.80;10.73;;;;;;;;;;5075810;28;20448;-82
2023/01/10 12:53:13;;;;;;;17.77;10.63;;;;;;;;;;5075066;28;20483;-82
2023/01/10 12:55:41;;;;;;;19.53;10.10;;;;;;;;;;5071299;28;20455;-82
2023/01/10 12:58:12;;;;;;;17.10;10.87;;;;;;;;;;5073053;28;20514;-82
2023/01/10 13:00:41;;;;;;;19.80;9.53;;;;;;;;;;5073911;28;20452;-82
2023/01/10 13:03:11;;;;;;;23.13;8.33;;;;;;;;;;5058986;28;20474;-82
2023/01/10 13:05:37;;;;;;;25.83;10.57;;;;;;;;;;5056226;28;20460;-82
2023/01/10 13:08:05;;;;;;;24.30;9.07;;;;;;;;;;5051914;28;20477;-82
2023/01/10 13:10:33;;;;;;;23.00;11.00;;;;;;;;;;5062116;28;20452;-82
2023/01/10 13:13:01;;;;;;;20.97;11.43;;;;;;;;;;5055021;28;20854;-82
2023/01/10 13:15:29;;;;;;;26.60;10.83;;;;;;;;;;5056178;28;20445;-82
2023/01/10 13:17:59;;;;;;;28.93;11.80;;;;;;;;;;5057451;28;20933;-82
2023/01/10 13:20:40;;;;;;;30.23;11.57;;;;;;;;;;5060952;28;20510;-82
2023/01/10 13:23:18;;;;;;;20.13;11.10;;;;;;;;;;5058016;28;20475;-82
2023/01/10 13:25:53;;;;;;;31.73;11.50;;;;;;;;;;5057870;28;20452;-82
2023/01/10 13:28:21;;;;;;;28.00;11.10;;;;;;;;;;5073810;28;20470;-82
2023/01/10 13:30:51;;;;;;;24.53;12.80;;;;;;;;;;5073746;28;21006;-82
2023/01/10 13:33:21;;;;;;;26.23;10.87;;;;;;;;;;5069546;28;20494;-82
2023/01/10 13:35:48;;;;;;;29.17;12.53;;;;;;;;;;5073009;28;20450;-82
2023/01/10 13:38:20;;;;;;;33.40;11.23;;;;;;;;;;5077503;28;20467;-82
2023/01/10 13:40:56;;;;;;;34.43;13.50;;;;;;;;;;5077260;28;20447;-83
2023/01/10 13:43:32;;;;;;;18.07;10.40;;;;;;;;;;5075866;28;20830;-82
2023/01/10 13:46:17;;;;;;;20.63;9.33;;;;;;;;;;5076879;28;20455;-82
2023/01/10 13:49:03;;;;;;;18.27;9.17;;;;;;;;;;5075759;28;20484;-82
2023/01/10 13:51:31;;;;;;;25.30;10.30;;;;;;;;;;5069838;28;20494;-82
2023/01/10 13:53:59;;;;;;;32.80;12.50;;;;;;;;;;5073897;28;20448;-82
2023/01/10 13:56:43;;;;;;;18.90;8.67;;;;;;;;;;5069056;28;20462;-82
2023/01/10 14:04:45;;;;;;;31.00;10.33;;;;;;;;;;5074504;28;20417;-82
2023/01/10 14:07:19;;;;;;;38.47;10.63;;;;;;;;;;5079052;28;21170;-82
2023/01/10 14:09:48;;;;;;;22.47;9.10;;;;;;;;;;5073717;28;20466;-82
2023/01/10 14:12:20;;;;;;;23.90;8.10;;;;;;;;;;5066866;28;20471;-82
2023/01/10 14:14:50;;;;;;;24.13;8.50;;;;;;;;;;5075145;28;20447;-82
2023/01/10 14:17:21;;;;;;;19.50;9.67;;;;;;;;;;5073514;28;20490;-82
2023/01/10 14:19:48;;;;;;;20.00;8.50;;;;;;;;;;5083025;28;20465;-82
2023/01/10 14:22:23;;;;;;;20.73;9.10;;;;;;;;;;5071643;28;20468;-83
2023/01/10 14:24:52;;;;;;;21.60;10.07;;;;;;;;;;5077132;28;20439;-82
2023/01/10 14:27:20;;;;;;;28.47;10.00;;;;;;;;;;5075713;28;20497;-84
2023/01/10 14:29:49;;;;;;;15.67;7.93;;;;;;;;;;5074592;28;20459;-82
2023/01/10 14:32:18;;;;;;;28.37;8.37;;;;;;;;;;5077531;28;20475;-82
2023/01/10 14:34:45;;;;;;;28.20;9.77;;;;;;;;;;5079080;28;20440;-82
2023/01/10 14:37:15;;;;;;;19.43;9.47;;;;;;;;;;5075219;28;20472;-83
2023/01/10 14:39:42;;;;;;;42.27;8.37;;;;;;;;;;5071601;28;20440;-82
2023/01/10 14:42:14;;;;;;;23.80;8.07;;;;;;;;;;5072010;28;20462;-82
2023/01/10 14:44:44;;;;;;;20.13;8.30;;;;;;;;;;5073646;28;20511;-82
2023/01/10 14:47:26;;;;;;;21.07;8.70;;;;;;;;;;5070925;28;20472;-82
2023/01/10 14:49:54;;;;;;;22.00;8.13;;;;;;;;;;5073598;28;20503;-82
2023/01/10 14:52:22;;;;;;;28.47;8.20;;;;;;;;;;5073936;28;20476;-82
2023/01/10 14:54:54;;;;;;;20.13;9.40;;;;;;;;;;5077713;28;20455;-83